createdAt,value
2022-09-11T00:00:31.046Z,98053.20
2022-09-11T00:07:10.422Z,98059.40
2022-09-11T00:14:07.070Z,98062.00
2022-09-11T00:21:03.086Z,98049.00
2022-09-11T00:28:05.762Z,98060.80
2022-09-11T00:35:08.644Z,98062.00
2022-09-11T00:42:11.307Z,98070.20
2022-09-11T00:49:14.114Z,98057.60
2022-09-11T00:56:16.913Z,98062.80
2022-09-11T01:03:19.457Z,98059.20
2022-09-11T01:10:15.125Z,98060.00
2022-09-11T01:17:36.353Z,98061.40
2022-09-11T01:24:57.021Z,98062.60
2022-09-11T01:31:58.514Z,98060.00
2022-09-11T01:39:01.746Z,98062.80
2022-09-11T01:46:03.419Z,98052.60
2022-09-11T01:52:45.116Z,98044.00
2022-09-11T01:59:27.885Z,98054.20
2022-09-11T02:06:32.195Z,98040.20
2022-09-11T02:13:38.120Z,98034.00
2022-09-11T02:20:41.304Z,98043.80
2022-09-11T02:27:38.903Z,98042.80
2022-09-11T02:34:39.997Z,98034.00
2022-09-11T02:41:34.456Z,98024.20
2022-09-11T02:48:43.417Z,98027.00
2022-09-11T02:55:39.774Z,98024.00
2022-09-11T03:02:44.415Z,98015.40
2022-09-11T03:09:47.347Z,98024.60
2022-09-11T03:16:50.249Z,98013.20
2022-09-11T03:23:51.296Z,98009.80
2022-09-11T03:30:54.486Z,98008.40
2022-09-11T03:37:57.327Z,98013.00
2022-09-11T03:44:57.493Z,98013.20
2022-09-11T03:52:00.658Z,98011.80
2022-09-11T03:59:02.374Z,98008.40
2022-09-11T04:06:05.287Z,98007.00
2022-09-11T04:13:06.221Z,98003.80
2022-09-11T04:20:08.223Z,98005.60
2022-09-11T04:27:13.963Z,98005.00
2022-09-11T04:34:16.617Z,98014.00
2022-09-11T04:41:19.530Z,98022.40
2022-09-11T04:48:22.579Z,98029.40
2022-09-11T04:55:25.310Z,98014.60
2022-09-11T05:02:21.017Z,98017.40
2022-09-11T05:09:26.630Z,98021.20
2022-09-11T05:16:28.336Z,98018.20
2022-09-11T05:23:21.278Z,98017.80
2022-09-11T05:30:23.947Z,98017.40
2022-09-11T05:37:19.742Z,98002.80
2022-09-11T05:44:11.607Z,98012.80
2022-09-11T05:50:57.858Z,98023.80
2022-09-11T05:57:49.726Z,98023.60
2022-09-11T06:04:46.443Z,98025.60
2022-09-11T06:11:49.461Z,98025.20
2022-09-11T06:18:37.785Z,98028.80
2022-09-11T06:25:30.587Z,98036.80
2022-09-11T06:32:27.887Z,98047.40
2022-09-11T06:39:36.537Z,98053.60
2022-09-11T06:46:13.429Z,98031.00
2022-09-11T06:53:14.948Z,98044.20
2022-09-11T06:59:38.816Z,98041.40
2022-09-11T07:06:41.730Z,98045.80
2022-09-11T07:13:45.213Z,98043.80
2022-09-11T07:27:57.170Z,98048.60
2022-09-11T07:34:53.072Z,98045.40
2022-09-11T07:41:55.997Z,98048.40
2022-09-11T07:48:58.911Z,98052.00
2022-09-11T07:55:50.373Z,98048.20
2022-09-11T08:02:53.508Z,98058.60
2022-09-11T08:10:16.685Z,98068.00
2022-09-11T08:17:04.955Z,98074.00
2022-09-11T08:24:07.818Z,98071.40
2022-09-11T08:31:03.456Z,98070.60
2022-09-11T08:38:00.366Z,98067.60
2022-09-11T08:45:06.252Z,98075.00
2022-09-11T08:50:59.575Z,98076.80
2022-09-11T08:57:34.082Z,98081.40
2022-09-11T09:04:44.321Z,98079.40
2022-09-11T09:12:11.171Z,98084.80
2022-09-11T09:19:23.207Z,98086.40
2022-09-11T09:26:25.009Z,98091.80
2022-09-11T09:33:14.971Z,98093.40
2022-09-11T09:40:10.147Z,98099.20
2022-09-11T09:47:21.752Z,98089.80
2022-09-11T09:54:39.660Z,98088.20
2022-09-11T10:01:42.526Z,98095.00
2022-09-11T10:08:38.513Z,98094.60
2022-09-11T10:15:43.136Z,98092.20
2022-09-11T10:22:16.085Z,98099.20
2022-09-11T10:29:14.778Z,98099.00
2022-09-11T10:36:10.079Z,98098.00
2022-09-11T10:42:56.789Z,98098.20
2022-09-11T10:49:57.654Z,98094.60
2022-09-11T10:56:50.003Z,98096.00
2022-09-11T11:03:58.598Z,98091.40
2022-09-11T11:10:52.767Z,98094.80
2022-09-11T11:18:01.404Z,98088.80
2022-09-11T11:24:47.098Z,98092.60
2022-09-11T11:31:51.367Z,98093.00
2022-09-11T11:38:54.726Z,98086.20
2022-09-11T11:46:08.319Z,98100.00
2022-09-11T11:53:23.150Z,98097.80
2022-09-11T12:00:31.532Z,98094.80
2022-09-11T12:07:34.728Z,98096.00
2022-09-11T12:14:37.208Z,98101.60
2022-09-11T12:22:04.121Z,98099.40
2022-09-11T12:29:15.557Z,98091.80
2022-09-11T12:36:13.993Z,98092.20
2022-09-11T12:43:30.317Z,98091.00
2022-09-11T12:50:21.889Z,98089.20
2022-09-11T12:57:27.796Z,98093.00
2022-09-11T13:04:52.163Z,98095.20
2022-09-11T13:11:37.084Z,98093.20
2022-09-11T13:18:28.820Z,98093.40
2022-09-11T13:25:49.138Z,98095.00
2022-09-11T13:32:55.289Z,98098.40
2022-09-11T13:39:49.465Z,98097.20
2022-09-11T13:46:30.569Z,98098.20
2022-09-11T13:53:33.472Z,98086.00
2022-09-11T14:00:48.249Z,98082.60
2022-09-11T14:07:49.356Z,98081.20
2022-09-11T14:14:52.846Z,98081.80
2022-09-11T14:21:54.433Z,98094.20
2022-09-11T14:29:00.220Z,98105.20
2022-09-11T14:36:07.110Z,98095.80
2022-09-11T14:42:43.857Z,98105.40
2022-09-11T14:49:47.070Z,98103.80
2022-09-11T14:56:49.900Z,98125.20
2022-09-11T15:03:51.842Z,98121.80
2022-09-11T15:10:17.812Z,98116.40
2022-09-11T15:15:53.590Z,98115.20
2022-09-11T15:22:36.103Z,98117.80
2022-09-11T15:29:38.933Z,98125.40
2022-09-11T15:36:36.795Z,98122.00
2022-09-11T15:43:20.007Z,98134.60
2022-09-11T15:50:13.115Z,98143.00
2022-09-11T15:57:20.793Z,98149.60
2022-09-11T16:04:16.695Z,98157.80
2022-09-11T16:11:07.792Z,98161.00
2022-09-11T16:18:07.712Z,98170.00
2022-09-11T16:25:03.580Z,98168.60
2022-09-11T16:31:45.747Z,98167.20
2022-09-11T16:38:31.429Z,98167.00
2022-09-11T16:44:52.577Z,98172.20
2022-09-11T16:51:37.369Z,98177.20
2022-09-11T16:58:32.774Z,98185.60
2022-09-11T17:05:10.137Z,98186.80
2022-09-11T17:12:14.622Z,98190.20
2022-09-11T17:18:51.358Z,98202.00
2022-09-11T17:25:44.083Z,98208.60
2022-09-11T17:32:28.251Z,98221.20
2022-09-11T17:39:09.298Z,98225.00
2022-09-11T17:45:41.323Z,98229.60
2022-09-11T17:52:36.963Z,98233.20
2022-09-11T17:59:39.792Z,98235.40
2022-09-11T18:06:42.896Z,98243.60
2022-09-11T18:13:44.575Z,98243.20
2022-09-11T18:20:47.666Z,98249.80
2022-09-11T18:27:26.918Z,98256.80
2022-09-11T18:34:19.396Z,98260.20
2022-09-11T18:41:14.911Z,98253.40
2022-09-11T18:48:17.801Z,98261.60
2022-09-11T18:55:20.376Z,98260.80
2022-09-11T19:02:26.186Z,98262.60
2022-09-11T19:09:29.560Z,98267.60
2022-09-11T19:15:56.513Z,98273.60
2022-09-11T19:23:02.645Z,98274.60
2022-09-11T19:29:48.952Z,98284.00
2022-09-11T19:36:48.134Z,98286.00
2022-09-11T19:43:50.769Z,98289.20
2022-09-11T19:50:21.926Z,98297.60
2022-09-11T19:56:44.387Z,98296.40
2022-09-11T20:03:48.919Z,98311.00
2022-09-11T20:10:12.628Z,98308.20
2022-09-11T20:17:11.081Z,98306.20
2022-09-11T20:24:00.423Z,98302.80
2022-09-11T20:30:50.809Z,98310.40
2022-09-11T20:37:53.825Z,98310.40
2022-09-11T20:44:39.761Z,98308.00
2022-09-11T20:51:31.506Z,98308.80
2022-09-11T20:58:16.703Z,98313.60
2022-09-11T21:05:09.303Z,98313.80
2022-09-11T21:12:01.137Z,98308.00
2022-09-11T21:18:46.367Z,98304.60
2022-09-11T21:25:52.553Z,98309.40
2022-09-11T21:32:53.043Z,98308.20
2022-09-11T21:39:54.903Z,98311.20
2022-09-11T21:46:57.199Z,98311.60
2022-09-11T21:53:40.007Z,98317.20
2022-09-11T22:00:40.688Z,98317.40
2022-09-11T22:07:38.046Z,98311.60
2022-09-11T22:14:33.707Z,98311.00
2022-09-11T22:21:38.985Z,98318.60
2022-09-11T22:28:42.138Z,98330.20
2022-09-11T22:35:47.701Z,98326.00
2022-09-11T22:42:52.480Z,98328.80
2022-09-11T22:49:55.284Z,98336.80
2022-09-11T22:57:00.297Z,98332.80
2022-09-11T23:03:46.156Z,98332.80
2022-09-11T23:10:45.005Z,98336.20
2022-09-11T23:17:47.954Z,98330.60
2022-09-11T23:24:50.988Z,98328.80
2022-09-11T23:31:53.905Z,98324.20
2022-09-11T23:38:49.914Z,98325.60
2022-09-11T23:45:52.644Z,98330.60
2022-09-11T23:52:55.744Z,98328.60
2022-09-11T23:59:41.568Z,98323.40
